Time;durP1;ratioP1;P1;durP2;ratioP2;P2;SDS_P1;SDS_P2;PMS_P1;PMS_P2;Temp;Humidity;BMP_temperature;BMP_pressure;BME280_temperature;BME280_humidity;BME280_pressure;Samples;Min_cycle;Max_cycle;Signal;HPM_P1;HPM_P2
2024/01/12 00:00:46;;;;;;;24.30;15.33;;;1.00;99.90;;;;;;5238414;28;20762;-48
2024/01/12 00:03:17;;;;;;;27.40;14.13;;;1.00;99.90;;;;;;5240922;28;20182;-47
2024/01/12 00:05:47;;;;;;;33.43;14.77;;;1.00;99.90;;;;;;5237292;28;20182;-47
2024/01/12 00:08:18;;;;;;;29.77;15.03;;;1.00;99.90;;;;;;5239807;28;20245;-47
2024/01/12 00:10:48;;;;;;;28.30;14.57;;;0.90;99.90;;;;;;5240403;28;20186;-47
2024/01/12 00:13:19;;;;;;;25.53;15.20;;;0.90;99.90;;;;;;5242614;28;20233;-47
2024/01/12 00:15:50;;;;;;;29.43;15.53;;;0.90;99.90;;;;;;5231376;28;20670;-48
2024/01/12 00:18:21;;;;;;;24.87;14.87;;;0.90;99.90;;;;;;5237618;28;20637;-47
2024/01/12 00:20:51;;;;;;;21.37;13.87;;;0.90;99.90;;;;;;5234797;28;20472;-48
2024/01/12 00:23:22;;;;;;;29.70;15.17;;;0.80;99.90;;;;;;5237828;28;20190;-47
2024/01/12 00:25:58;;;;;;;28.03;15.57;;;0.90;99.90;;;;;;5244114;28;20197;-48
2024/01/12 00:28:30;;;;;;;26.70;14.53;;;0.90;99.90;;;;;;5239882;28;20205;-49
2024/01/12 00:31:01;;;;;;;33.87;14.80;;;0.90;99.90;;;;;;5219730;28;20454;-52
2024/01/12 00:33:31;;;;;;;29.00;14.73;;;0.90;99.90;;;;;;5226448;28;20462;-47
2024/01/12 00:36:02;;;;;;;22.47;14.00;;;0.90;99.90;;;;;;5237821;28;21712;-48
2024/01/12 00:38:33;;;;;;;26.17;14.47;;;0.90;99.90;;;;;;5240708;28;20309;-47
2024/01/12 00:41:03;;;;;;;23.87;14.10;;;0.90;99.90;;;;;;5239847;28;20193;-47
2024/01/12 00:43:34;;;;;;;25.40;13.70;;;0.90;99.90;;;;;;5241803;28;20175;-48
2024/01/12 00:46:05;;;;;;;26.10;14.43;;;0.90;99.90;;;;;;5237727;28;20263;-48
2024/01/12 00:48:36;;;;;;;25.43;14.37;;;0.90;99.90;;;;;;5231486;28;20251;-48
2024/01/12 00:51:06;;;;;;;28.07;13.93;;;0.90;99.90;;;;;;5238719;28;20429;-47
2024/01/12 00:53:37;;;;;;;26.13;15.57;;;0.90;99.90;;;;;;5241439;28;20217;-47
2024/01/12 00:56:07;;;;;;;31.80;13.80;;;1.00;99.90;;;;;;5244387;28;20237;-47
2024/01/12 00:58:38;;;;;;;31.63;15.50;;;1.00;99.90;;;;;;5231824;28;20194;-49
2024/01/12 01:01:09;;;;;;;26.80;13.80;;;1.00;99.90;;;;;;5238177;28;20190;-50
2024/01/12 01:03:40;;;;;;;23.13;14.10;;;1.00;99.90;;;;;;5240503;28;20651;-49
2024/01/12 01:06:11;;;;;;;28.70;15.50;;;1.00;99.90;;;;;;5223068;28;20436;-48
2024/01/12 01:08:42;;;;;;;27.07;14.30;;;1.00;99.90;;;;;;5236986;28;20452;-48
2024/01/12 01:11:12;;;;;;;36.13;15.03;;;1.00;99.90;;;;;;5237558;28;20186;-51
2024/01/12 01:13:43;;;;;;;29.07;15.83;;;1.00;99.90;;;;;;5237126;28;20178;-47
2024/01/12 01:16:14;;;;;;;26.23;13.37;;;1.00;99.90;;;;;;5239279;28;20206;-46
2024/01/12 01:18:44;;;;;;;29.50;15.20;;;1.00;99.90;;;;;;5236249;28;20635;-48
2024/01/12 01:21:15;;;;;;;27.30;16.27;;;1.00;99.90;;;;;;5239365;28;20660;-47
2024/01/12 01:23:45;;;;;;;22.83;12.93;;;1.10;99.90;;;;;;5238637;28;20201;-48
2024/01/12 01:26:16;;;;;;;32.20;14.70;;;1.00;99.90;;;;;;5237542;28;20993;-47
2024/01/12 01:28:47;;;;;;;31.87;15.73;;;1.00;99.90;;;;;;5240256;28;20202;-48
2024/01/12 01:31:17;;;;;;;27.00;15.10;;;1.00;99.90;;;;;;5236387;28;20187;-46
2024/01/12 01:33:48;;;;;;;26.87;13.20;;;1.00;99.90;;;;;;5241605;28;20185;-47
2024/01/12 01:36:18;;;;;;;29.83;14.47;;;1.00;99.90;;;;;;5236515;28;20301;-48
2024/01/12 01:38:49;;;;;;;34.00;15.73;;;1.10;99.90;;;;;;5240533;28;20217;-46
2024/01/12 01:41:20;;;;;;;23.53;13.90;;;1.10;99.90;;;;;;5233064;28;20597;-48
2024/01/12 01:43:51;;;;;;;26.87;14.80;;;1.20;99.90;;;;;;5235287;28;20213;-46
2024/01/12 01:46:21;;;;;;;26.43;13.57;;;1.10;99.90;;;;;;5241232;28;20178;-47
2024/01/12 01:48:52;;;;;;;33.33;13.90;;;1.10;99.90;;;;;;5236888;28;20210;-47
2024/01/12 01:51:24;;;;;;;32.10;14.43;;;1.10;99.90;;;;;;5224429;28;20479;-52
2024/01/12 01:53:54;;;;;;;24.67;13.60;;;1.10;99.90;;;;;;5240883;28;20424;-47
2024/01/12 01:56:25;;;;;;;26.67;13.37;;;1.10;99.90;;;;;;5236923;28;20555;-48
2024/01/12 01:58:56;;;;;;;30.13;14.57;;;1.10;99.90;;;;;;5239713;28;20229;-49
2024/01/12 02:01:27;;;;;;;29.00;13.80;;;1.10;99.90;;;;;;5235133;28;20559;-49
2024/01/12 02:03:59;;;;;;;27.37;14.33;;;1.00;99.90;;;;;;5243537;28;20175;-48
2024/01/12 02:06:29;;;;;;;20.90;13.60;;;1.00;99.90;;;;;;5246894;28;20189;-50
2024/01/12 02:09:03;;;;;;;20.33;12.20;;;1.00;99.90;;;;;;5244163;28;20452;-47
2024/01/12 02:11:33;;;;;;;22.10;13.23;;;1.00;99.90;;;;;;5236645;28;20272;-47
2024/01/12 02:14:06;;;;;;;22.17;14.13;;;1.00;99.90;;;;;;5224089;28;20846;-49
2024/01/12 02:16:37;;;;;;;21.67;13.60;;;1.10;99.90;;;;;;5222573;28;20226;-47
2024/01/12 02:19:08;;;;;;;24.30;14.00;;;1.10;99.90;;;;;;5239641;28;20457;-47
2024/01/12 02:21:39;;;;;;;27.83;14.10;;;1.10;99.90;;;;;;5233745;28;20425;-47
2024/01/12 02:24:09;;;;;;;24.27;14.17;;;1.10;99.90;;;;;;5235298;28;20202;-48
2024/01/12 02:26:40;;;;;;;26.57;14.30;;;1.10;99.90;;;;;;5243331;28;20190;-48
2024/01/12 02:29:11;;;;;;;29.07;14.10;;;1.00;99.90;;;;;;5240674;28;20215;-51
2024/01/12 02:31:43;;;;;;;26.80;14.23;;;1.00;99.90;;;;;;5234928;28;20522;-51
2024/01/12 02:34:14;;;;;;;26.73;13.80;;;1.00;99.90;;;;;;5216229;28;20440;-51
2024/01/12 02:36:45;;;;;;;26.13;13.27;;;1.00;99.90;;;;;;5232771;28;20564;-51
2024/01/12 02:39:15;;;;;;;26.43;15.00;;;1.00;99.90;;;;;;5235259;28;20536;-51
2024/01/12 02:41:46;;;;;;;29.83;16.17;;;1.00;99.90;;;;;;5234977;28;20187;-50
2024/01/12 02:44:16;;;;;;;24.60;13.40;;;1.00;99.90;;;;;;5240129;28;20191;-52
2024/01/12 02:46:47;;;;;;;27.63;14.80;;;1.00;99.90;;;;;;5233520;28;20285;-51
2024/01/12 02:49:18;;;;;;;25.37;14.27;;;1.00;99.90;;;;;;5235938;28;20185;-50
2024/01/12 02:51:48;;;;;;;25.83;14.17;;;1.00;99.90;;;;;;5222123;28;20187;-49
2024/01/12 02:54:19;;;;;;;20.80;14.37;;;1.00;99.90;;;;;;5224777;28;20273;-50
2024/01/12 02:56:49;;;;;;;26.97;14.57;;;1.00;99.90;;;;;;5240409;28;20497;-49
2024/01/12 02:59:20;;;;;;;24.53;14.13;;;1.00;99.90;;;;;;5237925;28;20669;-50
2024/01/12 03:01:51;;;;;;;21.80;13.33;;;1.00;99.90;;;;;;5236064;28;20881;-51
2024/01/12 03:04:21;;;;;;;24.77;13.10;;;1.00;99.90;;;;;;5242034;28;20277;-51
2024/01/12 03:06:52;;;;;;;29.87;14.10;;;1.00;99.90;;;;;;5234247;28;20190;-47
2024/01/12 03:09:22;;;;;;;23.50;13.30;;;1.00;99.90;;;;;;5235752;28;20189;-48
2024/01/12 03:11:53;;;;;;;21.10;12.87;;;1.00;99.90;;;;;;5234004;28;20667;-51
2024/01/12 03:14:24;;;;;;;24.23;13.20;;;1.00;99.90;;;;;;5235634;28;20663;-51
2024/01/12 03:16:54;;;;;;;28.53;12.47;;;1.00;99.90;;;;;;5227774;28;20268;-51
2024/01/12 03:19:25;;;;;;;26.37;14.30;;;1.00;99.90;;;;;;5234590;28;20183;-50
2024/01/12 03:21:55;;;;;;;29.57;13.77;;;1.00;99.90;;;;;;5242634;28;20231;-51
2024/01/12 03:24:27;;;;;;;23.97;13.40;;;1.00;99.90;;;;;;5233568;28;20306;-51
2024/01/12 03:26:57;;;;;;;25.60;13.53;;;1.00;99.90;;;;;;5233346;28;20179;-50
2024/01/12 03:29:28;;;;;;;35.80;14.60;;;1.00;99.90;;;;;;5239512;28;20446;-50
2024/01/12 03:31:58;;;;;;;29.50;14.60;;;1.00;99.90;;;;;;5241801;28;21733;-51
2024/01/12 03:34:29;;;;;;;30.50;12.90;;;1.00;99.90;;;;;;5242681;28;20182;-50
2024/01/12 03:37:00;;;;;;;37.90;15.60;;;1.00;99.90;;;;;;5234261;28;20187;-51
2024/01/12 03:39:30;;;;;;;29.67;13.30;;;1.00;99.90;;;;;;5243094;28;20179;-49
2024/01/12 03:42:01;;;;;;;26.00;13.60;;;1.00;99.90;;;;;;5234734;28;20195;-49
2024/01/12 03:44:31;;;;;;;26.90;13.77;;;1.00;99.90;;;;;;5228002;28;20174;-50
2024/01/12 03:47:02;;;;;;;32.20;14.10;;;0.90;99.90;;;;;;5239927;28;20186;-50
2024/01/12 03:49:33;;;;;;;25.07;13.27;;;1.00;99.90;;;;;;5239689;28;20233;-50
2024/01/12 03:52:05;;;;;;;25.10;13.77;;;0.90;99.90;;;;;;5241011;28;20175;-51
2024/01/12 03:54:36;;;;;;;30.03;14.33;;;0.90;99.90;;;;;;5247869;28;20409;-51
2024/01/12 03:57:06;;;;;;;24.17;13.80;;;1.00;99.90;;;;;;5242148;28;20809;-50
2024/01/12 03:59:37;;;;;;;26.03;13.80;;;0.90;99.90;;;;;;5234427;28;20258;-51
2024/01/12 04:02:08;;;;;;;22.53;12.70;;;0.90;99.90;;;;;;5224144;28;20210;-51
2024/01/12 04:04:41;;;;;;;20.40;11.70;;;0.90;99.90;;;;;;5234096;28;20621;-50
2024/01/12 04:07:11;;;;;;;21.90;11.17;;;0.90;99.90;;;;;;5238039;28;20309;-51
2024/01/12 04:09:42;;;;;;;22.10;12.67;;;0.90;99.90;;;;;;5237387;28;20516;-50
2024/01/12 04:12:13;;;;;;;22.03;11.03;;;0.90;99.90;;;;;;5233992;28;20239;-50
2024/01/12 04:14:45;;;;;;;20.47;11.43;;;0.90;99.90;;;;;;5235031;28;20464;-50
2024/01/12 04:17:16;;;;;;;17.30;11.07;;;0.80;99.90;;;;;;5239597;28;20721;-50
2024/01/12 04:19:46;;;;;;;18.43;11.00;;;0.80;99.90;;;;;;5242707;28;20444;-49
2024/01/12 04:22:17;;;;;;;19.43;10.80;;;0.80;99.90;;;;;;5236361;28;20194;-50
2024/01/12 04:24:47;;;;;;;20.73;12.50;;;0.80;99.90;;;;;;5235363;28;20205;-51
2024/01/12 04:27:18;;;;;;;19.43;11.40;;;0.90;99.90;;;;;;5240617;28;20256;-51
2024/01/12 04:29:49;;;;;;;20.07;10.53;;;0.90;99.90;;;;;;5237103;28;20654;-51
2024/01/12 04:32:19;;;;;;;16.53;10.47;;;0.90;99.90;;;;;;5235628;28;20186;-51
2024/01/12 04:34:50;;;;;;;15.90;10.07;;;1.00;99.90;;;;;;5234350;28;20207;-50
2024/01/12 04:37:21;;;;;;;18.33;10.40;;;0.90;99.90;;;;;;5237904;28;20206;-50
2024/01/12 04:39:52;;;;;;;18.00;11.10;;;0.80;99.90;;;;;;5240665;28;20186;-49
2024/01/12 04:42:22;;;;;;;21.13;12.47;;;0.90;99.90;;;;;;5230178;28;20796;-51
2024/01/12 04:44:53;;;;;;;17.20;10.20;;;0.90;99.90;;;;;;5231811;28;20190;-50
2024/01/12 04:47:24;;;;;;;16.50;10.33;;;0.90;99.90;;;;;;5235029;28;20242;-51
2024/01/12 04:49:54;;;;;;;16.27;11.00;;;0.90;99.90;;;;;;5237152;28;20597;-52
2024/01/12 04:52:25;;;;;;;17.23;9.50;;;0.90;99.90;;;;;;5243244;28;20216;-51
2024/01/12 04:54:55;;;;;;;17.43;10.00;;;0.90;99.90;;;;;;5231320;28;20218;-49
2024/01/12 04:57:26;;;;;;;19.00;9.97;;;0.90;99.90;;;;;;5243361;28;20234;-49
2024/01/12 04:59:57;;;;;;;17.63;11.13;;;0.90;99.90;;;;;;5239081;28;20186;-49
2024/01/12 05:02:27;;;;;;;14.97;10.30;;;0.90;99.90;;;;;;5237813;28;20187;-50
2024/01/12 05:04:58;;;;;;;16.10;9.50;;;0.80;99.90;;;;;;5239245;28;20650;-51
2024/01/12 05:07:28;;;;;;;20.93;11.70;;;0.90;99.90;;;;;;5238916;28;20212;-51
2024/01/12 05:09:59;;;;;;;21.20;10.93;;;0.90;99.90;;;;;;5235202;28;20654;-50
2024/01/12 05:12:30;;;;;;;17.17;11.47;;;0.90;99.90;;;;;;5236611;28;20248;-49
2024/01/12 05:15:04;;;;;;;17.43;10.20;;;0.80;99.90;;;;;;5231395;28;20217;-51
2024/01/12 05:17:35;;;;;;;15.07;10.00;;;0.80;99.90;;;;;;5236668;28;20461;-51
2024/01/12 05:20:06;;;;;;;15.67;8.50;;;0.80;99.90;;;;;;5228564;28;20459;-48
2024/01/12 05:22:37;;;;;;;12.50;8.53;;;0.90;99.90;;;;;;5232423;28;20182;-51
2024/01/12 05:25:08;;;;;;;15.87;8.00;;;1.00;99.90;;;;;;5239104;28;20508;-49
2024/01/12 05:27:38;;;;;;;13.70;9.17;;;0.90;99.90;;;;;;5235631;28;20720;-52
2024/01/12 05:30:09;;;;;;;14.47;8.20;;;0.80;99.90;;;;;;5238235;28;20213;-52
2024/01/12 05:32:40;;;;;;;15.97;9.60;;;0.80;99.90;;;;;;5250636;28;20187;-51
2024/01/12 05:35:11;;;;;;;16.53;8.67;;;0.90;99.90;;;;;;5236379;28;20456;-50
2024/01/12 05:37:41;;;;;;;13.90;9.30;;;0.80;99.90;;;;;;5237234;28;20671;-52
2024/01/12 05:40:12;;;;;;;13.07;8.50;;;0.80;99.90;;;;;;5235951;28;20198;-50
2024/01/12 05:42:42;;;;;;;13.97;8.33;;;0.70;99.90;;;;;;5234138;28;20188;-49
2024/01/12 05:45:13;;;;;;;11.93;8.40;;;0.70;99.90;;;;;;5237791;28;20251;-48
2024/01/12 05:47:44;;;;;;;14.40;8.97;;;0.70;99.90;;;;;;5237706;28;20277;-52
2024/01/12 05:50:14;;;;;;;12.80;9.10;;;0.60;99.90;;;;;;5235360;28;20182;-52
2024/01/12 05:52:47;;;;;;;15.20;8.53;;;0.60;99.90;;;;;;5240409;28;20210;-51
2024/01/12 05:55:17;;;;;;;15.73;9.87;;;0.50;99.90;;;;;;5243115;28;20564;-52
2024/01/12 05:57:48;;;;;;;13.93;8.80;;;0.60;99.90;;;;;;5239289;28;20440;-52
2024/01/12 06:00:19;;;;;;;15.80;9.50;;;0.60;99.90;;;;;;5235727;28;20188;-54
2024/01/12 06:02:49;;;;;;;14.40;9.40;;;0.70;99.90;;;;;;5235643;28;20174;-51
2024/01/12 06:05:20;;;;;;;16.77;10.10;;;0.70;99.90;;;;;;5230850;28;20193;-50
2024/01/12 06:07:51;;;;;;;11.83;8.87;;;0.70;99.90;;;;;;5224207;28;20202;-51
2024/01/12 06:10:21;;;;;;;15.10;10.33;;;0.70;99.90;;;;;;5238584;28;20658;-52
2024/01/12 06:12:53;;;;;;;16.30;10.03;;;0.70;99.90;;;;;;5240981;28;20186;-49
2024/01/12 06:15:24;;;;;;;17.80;11.20;;;0.60;99.90;;;;;;5236189;28;20659;-52
2024/01/12 06:17:57;;;;;;;21.47;11.13;;;0.60;99.90;;;;;;5206899;28;20480;-53
2024/01/12 06:20:27;;;;;;;22.70;11.63;;;0.50;99.90;;;;;;5232756;28;20181;-51
2024/01/12 06:22:58;;;;;;;19.53;12.13;;;0.50;99.90;;;;;;5235284;28;20430;-53
2024/01/12 06:25:29;;;;;;;22.03;12.17;;;0.50;99.90;;;;;;5237986;28;20185;-52
2024/01/12 06:28:00;;;;;;;22.77;12.90;;;0.50;99.90;;;;;;5232825;28;20206;-50
2024/01/12 06:30:31;;;;;;;20.70;12.53;;;0.50;99.90;;;;;;5225514;28;20441;-50
2024/01/12 06:33:02;;;;;;;30.50;15.20;;;0.50;99.90;;;;;;5238438;28;20190;-50
2024/01/12 06:35:32;;;;;;;25.93;13.37;;;0.70;99.90;;;;;;5236003;28;20495;-49
2024/01/12 06:38:03;;;;;;;24.10;13.47;;;0.60;99.90;;;;;;5234187;28;20206;-49
2024/01/12 06:40:34;;;;;;;25.50;12.73;;;0.60;99.90;;;;;;5236900;28;20262;-51
2024/01/12 06:43:05;;;;;;;28.10;12.07;;;0.60;99.90;;;;;;5239096;28;20202;-52
2024/01/12 06:45:35;;;;;;;21.77;11.77;;;0.60;99.90;;;;;;5228922;28;20201;-49
2024/01/12 06:48:06;;;;;;;22.87;12.60;;;0.60;99.90;;;;;;5232328;28;20203;-49
2024/01/12 06:50:36;;;;;;;22.33;11.97;;;0.60;99.90;;;;;;5234098;28;20250;-54
2024/01/12 06:53:10;;;;;;;30.83;14.63;;;0.50;99.90;;;;;;5236925;28;20191;-51
2024/01/12 06:55:40;;;;;;;29.63;11.93;;;0.50;99.90;;;;;;5239040;28;21150;-51
2024/01/12 06:58:11;;;;;;;24.30;11.20;;;0.40;99.90;;;;;;5235125;28;20436;-51
2024/01/12 07:00:41;;;;;;;23.40;12.30;;;0.50;99.90;;;;;;5234247;28;20732;-52
2024/01/12 07:03:12;;;;;;;18.97;10.83;;;0.50;99.90;;;;;;5238425;28;20180;-49
2024/01/12 07:05:43;;;;;;;20.87;10.23;;;0.50;99.90;;;;;;5241881;28;20330;-49
2024/01/12 07:08:14;;;;;;;20.43;11.03;;;0.40;99.90;;;;;;5233835;28;20223;-50
2024/01/12 07:10:45;;;;;;;18.93;9.90;;;0.50;99.90;;;;;;5232830;28;20208;-51
2024/01/12 07:13:16;;;;;;;23.70;9.80;;;0.50;99.90;;;;;;5238581;28;20796;-49
2024/01/12 07:15:47;;;;;;;16.50;8.57;;;0.50;99.90;;;;;;5239616;28;20460;-51
2024/01/12 07:18:17;;;;;;;16.50;9.13;;;0.40;99.90;;;;;;5241759;28;20208;-53
2024/01/12 07:20:48;;;;;;;21.80;9.57;;;0.40;99.90;;;;;;5239754;28;20175;-51
2024/01/12 07:23:18;;;;;;;14.20;7.93;;;0.40;99.90;;;;;;5242332;28;20181;-51
2024/01/12 07:25:49;;;;;;;16.77;8.87;;;0.40;99.90;;;;;;5242431;28;20187;-53
2024/01/12 07:28:19;;;;;;;16.33;9.10;;;0.40;99.90;;;;;;5233743;28;20697;-51
2024/01/12 07:30:54;;;;;;;15.30;8.73;;;0.30;99.90;;;;;;5237134;28;20316;-52
2024/01/12 07:33:25;;;;;;;14.13;7.10;;;0.40;99.90;;;;;;5240110;28;20318;-51
2024/01/12 07:35:55;;;;;;;16.27;7.63;;;0.40;99.90;;;;;;5241735;28;20547;-51
2024/01/12 07:38:26;;;;;;;16.93;8.27;;;0.40;99.90;;;;;;5243515;28;20195;-48
2024/01/12 07:40:57;;;;;;;16.00;9.10;;;0.40;99.90;;;;;;5238127;28;20189;-52
2024/01/12 07:43:27;;;;;;;13.20;7.27;;;0.30;99.90;;;;;;5241077;28;20682;-52
2024/01/12 07:45:59;;;;;;;12.43;8.23;;;0.30;99.90;;;;;;5234428;28;20186;-52
2024/01/12 07:48:29;;;;;;;12.83;7.90;;;0.20;99.90;;;;;;5235195;28;20226;-51
2024/01/12 07:51:00;;;;;;;13.93;8.97;;;0.30;99.90;;;;;;5238808;28;20577;-52
2024/01/12 07:53:31;;;;;;;15.57;8.70;;;0.50;99.90;;;;;;5237876;28;21048;-52
2024/01/12 07:56:01;;;;;;;17.73;9.00;;;0.40;99.90;;;;;;5235500;28;20294;-50
2024/01/12 07:58:32;;;;;;;13.00;8.37;;;0.40;99.90;;;;;;5235187;28;20204;-48
2024/01/12 08:01:05;;;;;;;14.90;8.47;;;0.40;99.90;;;;;;5243970;28;20693;-47
2024/01/12 08:03:36;;;;;;;18.00;8.93;;;0.40;99.90;;;;;;5241558;28;20200;-49
2024/01/12 08:06:06;;;;;;;18.00;8.20;;;0.40;99.90;;;;;;5245780;28;20433;-48
2024/01/12 08:08:37;;;;;;;17.83;8.97;;;0.40;99.90;;;;;;5242075;28;20296;-47
2024/01/12 08:11:08;;;;;;;15.17;8.23;;;0.30;99.90;;;;;;5250512;28;20191;-46
2024/01/12 08:13:38;;;;;;;17.57;8.47;;;0.40;99.90;;;;;;5241531;28;20265;-50
2024/01/12 08:16:09;;;;;;;15.23;7.63;;;0.40;99.90;;;;;;5237380;28;20692;-49
2024/01/12 08:18:39;;;;;;;15.90;8.63;;;0.40;99.90;;;;;;5238072;28;20194;-47
2024/01/12 08:21:10;;;;;;;13.63;6.80;;;0.40;99.90;;;;;;5242854;28;20283;-47
2024/01/12 08:23:41;;;;;;;18.83;7.10;;;0.50;99.90;;;;;;5239875;28;20182;-50
2024/01/12 08:26:13;;;;;;;11.90;6.77;;;0.40;99.90;;;;;;5243158;28;20265;-52
2024/01/12 08:28:44;;;;;;;11.27;6.23;;;0.40;99.90;;;;;;5239177;28;20199;-49
2024/01/12 08:31:14;;;;;;;10.20;6.90;;;0.40;99.90;;;;;;5243263;28;20424;-48
2024/01/12 08:33:48;;;;;;;17.60;8.37;;;0.40;99.90;;;;;;5236451;28;20193;-48
2024/01/12 08:36:18;;;;;;;13.60;6.27;;;0.50;99.90;;;;;;5245060;28;20662;-48
2024/01/12 08:38:50;;;;;;;14.40;8.07;;;0.50;99.90;;;;;;5239685;28;20483;-48
2024/01/12 08:41:20;;;;;;;15.63;8.33;;;0.60;99.90;;;;;;5246303;28;20270;-49
2024/01/12 08:43:53;;;;;;;11.33;7.60;;;0.60;99.90;;;;;;5238885;28;20515;-49
2024/01/12 08:46:24;;;;;;;43.63;10.37;;;0.60;99.90;;;;;;5242531;28;20184;-48
2024/01/12 08:48:54;;;;;;;19.43;10.03;;;0.60;99.90;;;;;;5242844;28;20976;-48
2024/01/12 08:51:25;;;;;;;22.00;10.60;;;0.60;99.90;;;;;;5245779;28;20471;-51
2024/01/12 08:53:56;;;;;;;18.63;9.30;;;0.60;99.90;;;;;;5242416;28;20459;-49
2024/01/12 08:56:26;;;;;;;22.23;11.10;;;0.60;99.90;;;;;;5234156;28;20210;-49
2024/01/12 08:58:57;;;;;;;24.30;11.40;;;0.70;99.90;;;;;;5241544;28;20639;-49
2024/01/12 09:01:28;;;;;;;18.77;10.73;;;0.70;99.90;;;;;;5240746;28;20189;-51
2024/01/12 09:03:59;;;;;;;21.50;11.50;;;0.70;99.90;;;;;;5242785;28;20253;-48
2024/01/12 09:06:30;;;;;;;18.13;10.20;;;0.70;99.90;;;;;;5243873;28;20176;-49
2024/01/12 09:09:01;;;;;;;15.60;9.17;;;0.70;99.90;;;;;;5241728;28;21014;-48
2024/01/12 09:11:31;;;;;;;20.13;10.30;;;0.70;99.90;;;;;;5240888;28;20339;-48
2024/01/12 09:14:02;;;;;;;22.07;11.27;;;0.80;99.90;;;;;;5237908;28;20187;-50
2024/01/12 09:16:33;;;;;;;17.60;9.77;;;0.80;99.90;;;;;;5237067;28;20214;-48
2024/01/12 09:19:03;;;;;;;21.43;10.67;;;0.80;99.90;;;;;;5229163;28;20206;-48
2024/01/12 09:21:34;;;;;;;21.97;11.23;;;0.90;99.90;;;;;;5227191;28;20801;-48
2024/01/12 09:24:05;;;;;;;18.30;10.50;;;0.90;99.90;;;;;;5245453;28;20175;-47
2024/01/12 09:26:35;;;;;;;20.03;11.20;;;0.90;99.90;;;;;;5237496;28;20542;-48
2024/01/12 09:29:06;;;;;;;16.63;9.80;;;0.90;99.90;;;;;;5244016;28;20451;-48
2024/01/12 09:31:38;;;;;;;24.13;11.20;;;0.90;99.90;;;;;;5235652;28;20196;-48
2024/01/12 09:34:09;;;;;;;16.97;9.87;;;1.00;99.90;;;;;;5235076;28;20182;-48
2024/01/12 09:36:39;;;;;;;20.00;10.00;;;1.00;99.90;;;;;;5235391;28;20996;-48
2024/01/12 09:39:14;;;;;;;20.10;10.80;;;1.00;99.90;;;;;;5240775;28;20203;-49
2024/01/12 09:41:47;;;;;;;19.07;8.43;;;1.00;99.90;;;;;;5240659;28;20174;-49
2024/01/12 09:44:22;;;;;;;16.17;10.40;;;1.00;99.90;;;;;;5237058;28;20424;-49
2024/01/12 09:46:58;;;;;;;12.70;9.00;;;1.10;99.90;;;;;;5243262;28;20563;-48
2024/01/12 09:49:30;;;;;;;14.70;8.40;;;1.10;99.90;;;;;;5233703;28;20409;-49
2024/01/12 09:52:03;;;;;;;9.10;7.17;;;1.20;99.90;;;;;;5232903;28;20448;-46
2024/01/12 09:54:35;;;;;;;7.00;6.30;;;1.20;99.90;;;;;;5240794;28;20428;-47
2024/01/12 09:57:07;;;;;;;8.77;6.60;;;1.20;99.90;;;;;;5240466;28;20482;-48
2024/01/12 09:59:39;;;;;;;8.33;6.90;;;1.20;99.90;;;;;;5238241;28;20837;-50
2024/01/12 10:02:13;;;;;;;8.73;6.27;;;1.20;99.90;;;;;;5242192;28;20466;-49
2024/01/12 10:04:43;;;;;;;8.60;7.40;;;1.20;99.90;;;;;;5232523;28;20420;-49
2024/01/12 10:07:14;;;;;;;7.77;6.43;;;1.30;99.90;;;;;;5240109;28;20548;-48
2024/01/12 10:09:46;;;;;;;10.20;6.80;;;1.30;99.90;;;;;;5240003;28;20730;-47
2024/01/12 10:12:17;;;;;;;11.23;7.17;;;1.30;99.90;;;;;;5238681;28;20446;-57
2024/01/12 10:15:02;;;;;;;9.53;6.20;;;1.20;99.90;;;;;;5242920;28;20441;-49
2024/01/12 10:17:34;;;;;;;11.27;6.30;;;1.30;99.90;;;;;;5234652;28;20247;-48
2024/01/12 10:20:06;;;;;;;10.60;8.47;;;1.30;99.90;;;;;;5238157;28;20427;-50
2024/01/12 10:22:36;;;;;;;13.23;8.40;;;1.30;99.90;;;;;;5234250;28;20816;-51
2024/01/12 10:25:07;;;;;;;12.50;8.13;;;1.40;99.90;;;;;;5236804;28;20437;-48
2024/01/12 10:27:38;;;;;;;13.87;8.30;;;1.40;99.90;;;;;;5238844;28;20222;-47
2024/01/12 10:30:09;;;;;;;12.10;7.13;;;1.40;99.90;;;;;;5240178;28;20200;-48
2024/01/12 10:32:40;;;;;;;9.10;7.17;;;1.30;99.90;;;;;;5220361;28;20241;-47
2024/01/12 10:35:11;;;;;;;16.03;7.83;;;1.40;99.90;;;;;;5219125;28;20457;-47
2024/01/12 10:37:43;;;;;;;16.90;7.43;;;1.30;99.90;;;;;;5240804;28;20227;-48
2024/01/12 10:40:17;;;;;;;11.07;7.10;;;1.30;99.90;;;;;;5240876;28;20439;-48
2024/01/12 10:42:48;;;;;;;13.33;7.03;;;1.30;99.90;;;;;;5245403;28;20523;-48
2024/01/12 10:45:21;;;;;;;12.83;7.37;;;1.30;99.90;;;;;;5240269;28;20441;-49
2024/01/12 10:48:19;;;;;;;16.63;7.70;;;1.20;99.90;;;;;;5238956;28;20465;-47
2024/01/12 10:50:56;;;;;;;13.10;6.80;;;1.10;99.90;;;;;;5255046;28;21081;-47
2024/01/12 10:53:45;;;;;;;16.07;7.43;;;1.20;99.90;;;;;;5247032;28;20445;-53
2024/01/12 10:56:17;;;;;;;11.53;7.40;;;1.20;99.90;;;;;;5243991;28;20847;-49
2024/01/12 10:58:48;;;;;;;23.23;8.97;;;1.10;99.90;;;;;;5244539;28;20464;-50
2024/01/12 11:01:20;;;;;;;13.63;7.80;;;1.10;99.90;;;;;;5246256;28;20455;-47
2024/01/12 11:03:51;;;;;;;14.63;8.87;;;1.10;99.90;;;;;;5245341;28;20901;-48
2024/01/12 11:06:22;;;;;;;12.93;7.63;;;1.10;99.90;;;;;;5244436;28;20521;-49
2024/01/12 11:08:54;;;;;;;20.03;9.60;;;1.20;99.90;;;;;;5244068;28;20883;-46
2024/01/12 11:11:34;;;;;;;19.00;10.17;;;1.10;99.90;;;;;;5246047;28;20532;-47
2024/01/12 11:14:04;;;;;;;17.20;9.30;;;1.20;99.90;;;;;;5245646;28;20613;-48
2024/01/12 11:16:35;;;;;;;26.03;10.60;;;1.10;99.90;;;;;;5244815;28;21055;-47
2024/01/12 11:19:15;;;;;;;19.27;9.43;;;1.10;99.90;;;;;;5242665;28;20209;-47
2024/01/12 11:21:46;;;;;;;15.53;8.90;;;1.00;99.90;;;;;;5245984;28;20185;-48
2024/01/12 11:24:20;;;;;;;19.07;9.13;;;1.10;99.90;;;;;;5239723;28;20441;-51
2024/01/12 11:26:51;;;;;;;14.93;8.90;;;1.00;99.90;;;;;;5240446;28;20182;-46
2024/01/12 11:29:27;;;;;;;17.40;9.37;;;1.00;99.90;;;;;;5236762;28;20444;-48
2024/01/12 11:32:04;;;;;;;21.70;10.50;;;1.00;99.90;;;;;;5240953;28;20200;-47
2024/01/12 11:34:38;;;;;;;22.83;10.13;;;1.00;99.90;;;;;;5270010;28;20436;-47
2024/01/12 11:37:10;;;;;;;13.60;8.07;;;1.00;99.90;;;;;;5244230;28;20471;-47
2024/01/12 11:39:41;;;;;;;12.10;8.20;;;1.00;99.90;;;;;;5243926;28;20433;-46
2024/01/12 11:42:12;;;;;;;16.47;9.07;;;0.90;99.90;;;;;;5241599;28;20476;-47
2024/01/12 11:44:43;;;;;;;10.90;7.50;;;1.00;99.90;;;;;;5242234;28;20512;-48
2024/01/12 11:47:14;;;;;;;13.13;7.67;;;1.10;99.90;;;;;;5238745;28;20203;-47
2024/01/12 11:49:46;;;;;;;16.03;8.13;;;1.00;99.90;;;;;;5242968;28;20658;-51
2024/01/12 11:52:17;;;;;;;13.27;8.40;;;1.00;99.90;;;;;;5240343;28;20877;-47
2024/01/12 11:54:47;;;;;;;9.93;7.70;;;0.90;99.90;;;;;;5242791;28;20578;-49
2024/01/12 11:57:20;;;;;;;13.90;8.90;;;0.90;99.90;;;;;;5240016;28;20207;-48
2024/01/12 11:59:52;;;;;;;14.43;9.30;;;0.90;99.90;;;;;;5235632;28;20187;-47
2024/01/12 12:02:23;;;;;;;17.67;10.37;;;0.90;99.90;;;;;;5246265;28;20927;-50
2024/01/12 12:04:59;;;;;;;12.67;7.70;;;0.90;99.90;;;;;;5237736;28;20429;-52
2024/01/12 12:07:30;;;;;;;11.03;8.40;;;0.90;99.90;;;;;;5239167;28;20455;-47
2024/01/12 12:10:00;;;;;;;16.00;8.73;;;0.90;99.90;;;;;;5235899;28;20986;-49
2024/01/12 12:12:31;;;;;;;21.17;8.80;;;0.80;99.90;;;;;;5235890;28;20271;-49
2024/01/12 12:15:07;;;;;;;16.73;9.07;;;0.80;99.90;;;;;;5236413;28;22222;-50
2024/01/12 12:17:41;;;;;;;20.50;10.43;;;0.90;99.90;;;;;;5237204;28;20543;-51
2024/01/12 12:20:12;;;;;;;17.67;9.20;;;0.90;99.90;;;;;;5235394;28;20533;-50
2024/01/12 12:22:44;;;;;;;18.77;8.77;;;0.90;99.90;;;;;;5237552;28;20754;-50
2024/01/12 12:25:16;;;;;;;21.27;9.13;;;1.00;99.90;;;;;;5235329;28;20444;-50
2024/01/12 12:27:47;;;;;;;15.17;8.80;;;1.00;99.90;;;;;;5235293;28;20471;-53
2024/01/12 12:30:17;;;;;;;21.93;10.07;;;1.00;99.90;;;;;;5240352;28;20451;-52
2024/01/12 12:32:48;;;;;;;20.63;10.93;;;1.10;99.90;;;;;;5237394;28;20195;-51
2024/01/12 12:35:23;;;;;;;16.40;9.60;;;1.00;99.90;;;;;;5239484;28;20676;-51
2024/01/12 12:37:59;;;;;;;18.50;9.20;;;0.90;99.90;;;;;;5235522;28;20198;-52
2024/01/12 12:40:33;;;;;;;16.03;9.77;;;1.00;99.90;;;;;;5268951;28;20527;-52
2024/01/12 12:43:04;;;;;;;29.77;13.03;;;1.00;99.90;;;;;;5242146;28;20433;-51
2024/01/12 12:45:35;;;;;;;17.87;9.30;;;0.90;99.90;;;;;;5239910;28;20646;-51
2024/01/12 12:48:05;;;;;;;20.60;9.20;;;1.00;99.90;;;;;;5237640;28;20673;-52
2024/01/12 12:50:36;;;;;;;19.43;10.43;;;0.90;99.90;;;;;;5236132;28;20181;-50
2024/01/12 12:53:07;;;;;;;19.53;8.80;;;0.80;99.90;;;;;;5238575;28;20198;-52
2024/01/12 12:55:38;;;;;;;30.57;11.70;;;0.80;99.90;;;;;;5238789;28;20333;-50
2024/01/12 12:58:08;;;;;;;15.20;8.70;;;0.70;99.90;;;;;;5233799;28;20321;-52
2024/01/12 13:00:39;;;;;;;20.30;9.87;;;0.80;99.90;;;;;;5236672;28;20532;-51